Sunday, May 01, 2016
08:01 UTC
  |  Log In   |  Register Free
Airport Search:

Coffeyville Municipal Airport
(KCFV)

Coffeyville Municipal Airport Diagram
No Airport Diagram Available

FAA data valid effective Mar 31 2016 - May 26 2016 (unless otherwise noted).

 
 
 
 
 
 
 
 
 
 
 
 
 
 
Current Aviation Weather for KCFV

Weather Summary


The most recent METAR observation for CFV was updated at: 12:52 UTC
METAR for KCFV is not available. Closest METAR is for KIDP
KCFV  (most recent observation was updatred at 10:75 UTC)
010752Z AUTO 00000KT 10SM CLR 09/07 A2994 RMK AO2 SLP137 T00890072

KIDP  (10.6 nm SE)   (most recent observation was updated at 10:73 UTC)
010735Z AUTO 00000KT 10SM CLR 08/07 A2994 RMK AO2

KPPF  (14.6 nm SW)   (most recent observation was updated at 10:75 UTC)
010752Z AUTO 00000KT 10SM CLR 07/07 A2994 RMK AO2 SLP136 T00720067

TAF for KCFV is not available.
KBVO  (28.9 nm NE)   (most recent observation was updatred at 10:52 UTC)
010520Z 0106/0206 30003KT P6SM SKC FM011500 33007KT P6SM SCT250 FM020000 36005KT P6SM BKN050


KCNU  (34.8 nm SW)   (most recent observation was updatred at 10:52 UTC)
010520Z 0106/0206 28007KT P6SM SKC FM011500 30013KT P6SM SCT050


GlobalAir.com is loading additional information.
 Current Weather at CFV
51.0 F° (10.6 C°)

North winds at 0.0 mph
Pressure:
29.94 in
Humidity:
77%
Wind:
North at 0.0 mph
Dew Point:
44.1 F° (6.7 C°)
Visibility:
10.00 mi
CFV NOAA Radar




Find All Airport Services Find A Hotel Find A Rental Car Find A Golf Course Find A Restaurant $100 Hamburger



Airport Weather Forecast for KCFV

Translated METAR for KCFV (0752 UTC)
METAR:
KCFV 010752Z AUTO 00000KT 10SM CLR 09/07 A2994 RMK AO2 SLP137 T00890072
Conditions at:
KCFV (Coffeyville Muni, KS) observed 0752 UTC 01 May 2016
Temperature:
9°C (48.2°F)
Dewpoint:
7°C (44.6°F) [RH = 87.3]
Pressure:
29.94 inches Hg (1013.9 mb)
pressure at sea level is 137 in Hg
Winds:
from the N (000 degrees) at 0 mph (0 knots: 0 m/s)
Visibility:
10 mile(s)
Ceiling:
at least 12,000 feet AGL
Clouds:
Clear below 12,000 feet AGL
Remarks:
site is un-manned
site is automated and HAS a precipitation sensor

Translated TAF for KBVO (Bartlesville Muni, OK) (0520 UTC)
TAF text:
KBVO 010520Z 0106/0206 30003KT P6SM SKC
Forecast period:
Sunday May 01 2016 06:00 UTC - Monday May 02 2016 06:00 UTC
Forecast type:
FROM: standard forecast or significant change
Winds:
from the WNW (300 degrees) at 3.5 mph (3 knots: 1.5 m/s)
Visibility:
6 or more mile(s) (9.7+ km)
Ceiling:
at least 12,000 feet AGL
Clouds:
Clear Skies
Weather:
no significant weather observed at this time
TAF text:
FM011500 33007KT P6SM SCT250
Forecast period:
Sunday May 01 2016 15:00 UTC - Monday May 02 2016 00:00 UTC
Forecast type:
FROM: standard forecast or significant change
Winds:
from the NNW (330 degrees) at 8.1 mph (7 knots: 3.6 m/s)
Visibility:
6 or more mile(s) (9.7+ km)
Ceiling:
at least 12,000 feet AGL
Clouds:
Scattered Clouds at 25,000 feet AGL
Weather:
no significant weather observed at this time
TAF text:
FM020000 36005KT P6SM BKN050
Forecast period:
Monday May 02 2016 00:00 UTC - Monday May 02 2016 06:00 UTC
Forecast type:
FROM: standard forecast or significant change
Winds:
from the N (360 degrees) at 5.8 mph (5 knots: 2.6 m/s)
Visibility:
6 or more mile(s) (9.7+ km)
Ceiling:
5,000 feet AGL
Clouds:
Broken Cloud Cover at 5,000 feet AGL
Weather:
no significant weather observed at this time
FBO's on the Field
FBO Company Facility Photos Services Transportation Aviation Fuel Prices: Prices include tax
Catering Weather Repair Courtesy Rental Type 100LL JetA JetA+ MOGAS 8087
 
Coffeyville Aircraft, Inc

This FBO has not yet been rated
FS:Phillips 66
Last Updated: Mar-23
Login to update fuel prices
SS:
Contact Coffeyville Aircraft, IncMore FBO Information
 
Add another FBO Facility Photos Catering Weather Repair Courtesy Rental Type 100LL JetA JetA+ MOGAS 8087
Services Transportation Aviation Fuel Prices: Prices include tax


model-print
model-print
model-print
model-print